This is the latest recevied weather packets stored in our database for station/object 5B4APJ-13. If no packets are shown the sender has not sent any weather packets the latest 10 day(s).
| Time | Temp. | Humidity | Pressure | Rain* | Wind** | Luminosity | Snow |
|---|---|---|---|---|---|---|---|
| 1777702327 | 18.33° C | 69% | 1012.4 hPa | 0 mm | 0.89 m/s, 78° | 308 W/m² | - |
| 1777702027 | 17.78° C | 70% | 1012.5 hPa | 0 mm | 2.68 m/s, 197° | 250 W/m² | - |
| 1777701726 | 17.78° C | 71% | 1012.5 hPa | 0 mm | 1.79 m/s, 161° | 190 W/m² | - |
| 1777701426 | 17.78° C | 75% | 1012.2 hPa | 0 mm | 1.34 m/s, 168° | 179 W/m² | - |
| 1777701126 | 17.78° C | 76% | 1012.2 hPa | 0 mm | 1.34 m/s, 166° | 137 W/m² | - |
| 1777700826 | 17.78° C | 75% | 1012.1 hPa | 0 mm | 1.34 m/s, 195° | 153 W/m² | - |
| 1777700526 | 18.33° C | 73% | 1011.9 hPa | 0 mm | 1.79 m/s, 153° | 160 W/m² | - |
| 1777700226 | 18.33° C | 75% | 1012.1 hPa | 0 mm | 0.89 m/s, 120° | 176 W/m² | - |
| 1777699926 | 18.33° C | 74% | 1012.1 hPa | 0 mm | 1.34 m/s, 95° | 178 W/m² | - |
| 1777699626 | 18.33° C | 73% | 1012.4 hPa | 0 mm | 0.89 m/s, 145° | 279 W/m² | - |
| 1777699326 | 18.89° C | 71% | 1011.9 hPa | 0 mm | 0.45 m/s, 129° | 201 W/m² | - |
| 1777699026 | 18.89° C | 69% | 1011.9 hPa | 0 mm | 0.45 m/s, 117° | 285 W/m² | - |
| 1777698727 | 19.44° C | 65% | 1011.5 hPa | 0 mm | 1.79 m/s, 107° | 131 W/m² | - |
| 1777698426 | 19.44° C | 66% | 1011.7 hPa | 0 mm | 0.45 m/s, 72° | 291 W/m² | - |
| 1777698126 | 19.44° C | 66% | 1011.9 hPa | 0 mm | 0.45 m/s, 94° | 251 W/m² | - |
| 1777697826 | 18.89° C | 66% | 1011.4 hPa | 0 mm | 0.89 m/s, 154° | 252 W/m² | - |
| 1777697526 | 18.89° C | 65% | 1011.3 hPa | 0 mm | 0.89 m/s, 251° | 179 W/m² | - |
| 1777697226 | 18.89° C | 65% | 1011.2 hPa | 0 mm | 1.34 m/s, 150° | 263 W/m² | - |
| 1777696926 | 17.78° C | 74% | 1011.3 hPa | 0 mm | 0 m/s | 253 W/m² | - |
| 1777696626 | 17.22° C | 73% | 1011.4 hPa | 0 mm | 0 m/s | 188 W/m² | - |
| 1777696326 | 17.22° C | 77% | 1011.4 hPa | 0 mm | 0 m/s | 148 W/m² | - |
| 1777696026 | 17.22° C | 78% | 1011.3 hPa | 0 mm | 0.45 m/s, 155° | 158 W/m² | - |
| 1777695726 | 16.67° C | 78% | 1011.1 hPa | 0 mm | 0.45 m/s, 104° | 159 W/m² | - |
| 1777695426 | 16.67° C | 78% | 1011.1 hPa | 0 mm | 0.45 m/s, 114° | 139 W/m² | - |
| 1777695126 | 16.11° C | 81% | 1011 hPa | 0 mm | 0 m/s | 107 W/m² | - |
* Rain latest hour (hover to see other rain measurements)
** Current wind speed in m/s (hover to see current wind gust speed)